Time;durP1;ratioP1;P1;durP2;ratioP2;P2;SDS_P1;SDS_P2;PMS_P1;PMS_P2;Temp;Humidity;BMP_temperature;BMP_pressure;BME280_temperature;BME280_humidity;BME280_pressure;Samples;Min_cycle;Max_cycle;Signal;HPM_P1;HPM_P2
2022/03/27 00:02:00;;;;;;;22.00;14.55;;;27.00;99.90;;;;;;4185640;28;20043;-73
2022/03/27 00:04:07;;;;;;;26.25;14.55;;;26.90;99.90;;;;;;4160814;28;20042;-73
2022/03/27 00:06:12;;;;;;;20.88;13.18;;;26.90;99.90;;;;;;4184860;28;20044;-73
2022/03/27 00:08:23;;;;;;;23.25;12.50;;;26.80;99.90;;;;;;4162318;28;20048;-73
2022/03/27 00:11:23;;;;;;;22.42;12.50;;;26.80;99.90;;;;;;4161132;28;20381;-70
2022/03/27 00:12:56;;;;;;;17.98;12.82;;;26.90;99.90;;;;;;4161860;28;20103;-74
2022/03/27 00:15:05;;;;;;;22.48;13.07;;;27.00;99.90;;;;;;4163738;28;20045;-73
2022/03/27 00:17:12;;;;;;;20.88;12.15;;;27.10;99.90;;;;;;4161723;28;20124;-74
2022/03/27 00:19:18;;;;;;;21.15;12.82;;;27.10;99.90;;;;;;4154247;28;20194;-74
2022/03/27 00:21:25;;;;;;;17.67;12.07;;;27.10;99.90;;;;;;4160772;28;20065;-74
2022/03/27 00:23:36;;;;;;;22.15;12.35;;;27.10;99.90;;;;;;4123113;28;20108;-74
2022/03/27 00:25:45;;;;;;;18.02;11.30;;;27.20;99.90;;;;;;4151905;28;20045;-74
2022/03/27 00:27:52;;;;;;;16.05;10.73;;;27.20;99.90;;;;;;4163184;28;20045;-72
2022/03/27 00:30:09;;;;;;;18.73;11.70;;;27.20;99.90;;;;;;4163468;28;20056;-74
2022/03/27 00:32:23;;;;;;;19.65;12.35;;;27.20;99.90;;;;;;4163540;28;20052;-74
2022/03/27 00:34:36;;;;;;;;;;;27.30;99.90;;;;;;4168803;28;20048;-73
2022/03/27 00:36:54;;;;;;;18.55;12.00;;;27.20;99.90;;;;;;4161847;28;19931;-71
2022/03/27 00:39:01;;;;;;;19.60;11.10;;;27.30;99.90;;;;;;4161810;28;20129;-67
2022/03/27 00:41:25;;;;;;;23.95;11.80;;;27.30;99.90;;;;;;4160615;28;20179;-72
2022/03/27 00:43:39;;;;;;;22.15;12.02;;;27.30;99.90;;;;;;4159230;28;20045;-71
2022/03/27 00:45:46;;;;;;;15.68;10.60;;;27.40;99.90;;;;;;4161394;28;20037;-72
2022/03/27 00:47:58;;;;;;;17.10;10.50;;;27.30;99.90;;;;;;4152976;28;20053;-72
2022/03/27 00:50:15;;;;;;;16.83;10.82;;;27.30;99.90;;;;;;4183027;28;20053;-73
2022/03/27 00:52:24;;;;;;;16.30;10.50;;;27.40;99.90;;;;;;4160032;28;20049;-72
2022/03/27 00:54:33;;;;;;;13.35;9.73;;;27.50;99.90;;;;;;4160273;28;20092;-72
2022/03/27 00:56:40;;;;;;;13.90;9.57;;;27.60;99.90;;;;;;4159415;28;20045;-73
2022/03/27 00:58:49;;;;;;;15.45;9.45;;;27.60;99.90;;;;;;4151322;28;20050;-73
2022/03/27 01:01:04;;;;;;;;;;;27.60;99.90;;;;;;4159805;28;20562;-74
2022/03/27 01:03:25;;;;;;;17.02;9.88;;;27.60;99.90;;;;;;4160226;28;19925;-73
2022/03/27 01:05:35;;;;;;;15.93;10.17;;;27.50;99.90;;;;;;4160367;28;20419;-72
2022/03/27 01:07:43;;;;;;;14.48;9.93;;;27.60;99.90;;;;;;4168527;28;20296;-72
2022/03/27 01:09:50;;;;;;;15.25;9.60;;;27.70;99.90;;;;;;4161521;28;20702;-72
2022/03/27 01:12:17;;;;;;;15.55;10.25;;;27.80;99.90;;;;;;4159721;28;20044;-72
2022/03/27 01:14:31;;;;;;;17.83;10.57;;;27.80;99.90;;;;;;4159829;28;20060;-73
2022/03/27 01:16:47;;;;;;;14.63;9.75;;;27.90;99.90;;;;;;4126404;28;20047;-73
2022/03/27 01:19:01;;;;;;;17.20;10.75;;;28.00;99.90;;;;;;4160172;28;20423;-73
2022/03/27 01:21:14;;;;;;;17.98;10.07;;;28.10;99.90;;;;;;4161564;28;20061;-72
2022/03/27 01:23:20;;;;;;;13.93;9.68;;;28.20;99.90;;;;;;4152432;28;20042;-73
2022/03/27 01:25:27;;;;;;;15.80;10.02;;;28.30;99.90;;;;;;4155412;28;20132;-73
2022/03/27 01:27:38;;;;;;;13.95;8.70;;;28.30;99.90;;;;;;4162578;28;20037;-73
2022/03/27 01:30:06;;;;;;;14.32;8.90;;;28.30;99.90;;;;;;4155579;28;20046;-73
2022/03/27 01:32:17;;;;;;;12.35;9.52;;;28.30;99.90;;;;;;4151440;28;20396;-73
2022/03/27 01:34:44;;;;;;;16.45;9.45;;;28.20;99.90;;;;;;4148564;28;20122;-73
2022/03/27 01:37:08;;;;;;;15.57;8.70;;;28.20;99.90;;;;;;4166157;28;20049;-72
2022/03/27 01:39:23;;;;;;;14.52;9.13;;;28.20;99.90;;;;;;4166205;28;20077;-71
2022/03/27 01:41:35;;;;;;;15.38;8.57;;;28.30;99.90;;;;;;4170172;28;20455;-71
2022/03/27 01:43:48;;;;;;;13.25;9.15;;;28.30;99.90;;;;;;4173268;28;20550;-71
2022/03/27 01:46:12;;;;;;;12.65;8.75;;;28.50;99.90;;;;;;4142866;28;20049;-72
2022/03/27 01:48:30;;;;;;;16.73;9.45;;;28.60;99.90;;;;;;4161031;28;20050;-72
2022/03/27 01:50:59;;;;;;;12.77;8.60;;;28.80;99.90;;;;;;4170400;28;20056;-73
2022/03/27 01:53:11;;;;;;;15.45;8.60;;;28.90;99.90;;;;;;4169421;28;20072;-73
2022/03/27 01:55:28;;;;;;;12.25;8.80;;;28.90;99.90;;;;;;4161455;28;20054;-73
2022/03/27 01:57:42;;;;;;;12.68;8.77;;;28.90;99.90;;;;;;4164893;28;20396;-72
2022/03/27 01:59:54;;;;;;;13.95;8.32;;;28.90;99.90;;;;;;4162881;28;20048;-72
2022/03/27 02:02:10;;;;;;;12.68;8.65;;;28.90;99.90;;;;;;4143093;28;20042;-71
2022/03/27 02:04:21;;;;;;;15.50;8.45;;;29.00;99.90;;;;;;4163115;28;20037;-73
2022/03/27 02:06:39;;;;;;;16.73;9.55;;;29.20;99.90;;;;;;4162630;28;20057;-72
2022/03/27 02:08:48;;;;;;;13.73;8.68;;;29.30;99.90;;;;;;4161451;28;20045;-72
2022/03/27 02:11:10;;;;;;;15.65;9.07;;;29.30;99.90;;;;;;4161739;28;20129;-71
2022/03/27 02:13:22;;;;;;;16.73;8.52;;;29.20;99.90;;;;;;4162928;28;20056;-72
2022/03/27 02:15:34;;;;;;;14.60;8.77;;;29.30;99.90;;;;;;4160958;28;20033;-72
2022/03/27 02:17:44;;;;;;;11.10;8.25;;;29.40;99.90;;;;;;4163209;28;20096;-72
2022/03/27 02:19:52;;;;;;;15.88;8.98;;;29.50;99.90;;;;;;4187330;28;20044;-72
2022/03/27 02:22:06;;;;;;;12.13;8.43;;;29.60;99.90;;;;;;4181870;28;20049;-73
2022/03/27 02:24:18;;;;;;;13.23;8.57;;;29.70;99.90;;;;;;4144125;28;20054;-72
2022/03/27 02:26:45;;;;;;;10.88;7.97;;;29.80;99.90;;;;;;4162055;28;20056;-72
2022/03/27 02:28:55;;;;;;;11.70;8.40;;;29.90;99.90;;;;;;4162452;28;20136;-72
2022/03/27 02:31:04;;;;;;;14.45;8.73;;;30.00;99.90;;;;;;4128641;28;20046;-72
2022/03/27 02:33:18;;;;;;;19.08;9.02;;;30.00;99.90;;;;;;4188642;28;20048;-71
2022/03/27 02:35:28;;;;;;;14.75;8.02;;;30.10;99.90;;;;;;4144187;28;20038;-73
2022/03/27 02:37:39;;;;;;;11.13;8.10;;;30.20;99.90;;;;;;4098844;28;20191;-73
2022/03/27 02:39:51;;;;;;;13.68;7.88;;;30.20;99.90;;;;;;4161255;28;20133;-72
2022/03/27 02:41:56;;;;;;;15.00;8.20;;;30.30;99.70;;;;;;4161993;28;20073;-73
2022/03/27 02:44:05;;;;;;;11.40;8.00;;;30.30;99.30;;;;;;4163776;28;20076;-73
2022/03/27 02:46:12;;;;;;;15.25;8.30;;;30.40;98.90;;;;;;4161382;28;20172;-74
2022/03/27 02:48:22;;;;;;;9.43;7.43;;;30.50;98.70;;;;;;4145751;28;20080;-72
2022/03/27 02:50:33;;;;;;;14.25;7.47;;;30.50;97.70;;;;;;4167884;28;20587;-72
2022/03/27 02:52:40;;;;;;;9.70;7.38;;;30.50;98.00;;;;;;4162308;28;20846;-72
2022/03/27 02:54:48;;;;;;;13.48;8.07;;;30.60;97.50;;;;;;4161088;28;20057;-73
2022/03/27 02:57:01;;;;;;;11.63;7.05;;;30.60;96.80;;;;;;4161939;28;20045;-72
2022/03/27 02:59:16;;;;;;;11.40;6.88;;;30.60;97.40;;;;;;4162500;28;20124;-72
2022/03/27 03:01:24;;;;;;;11.65;7.82;;;30.70;97.10;;;;;;4145869;28;20513;-72
2022/03/27 03:03:50;;;;;;;12.48;8.55;;;30.80;97.70;;;;;;4160027;28;20057;-73
2022/03/27 03:05:57;;;;;;;10.68;7.25;;;30.90;97.20;;;;;;4160830;28;20057;-72
2022/03/27 03:08:12;;;;;;;12.38;7.07;;;30.90;97.00;;;;;;4160426;28;20058;-72
2022/03/27 03:10:25;;;;;;;10.57;7.28;;;31.00;96.60;;;;;;4163164;28;20421;-73
2022/03/27 03:12:39;;;;;;;13.48;7.53;;;31.10;96.10;;;;;;4162887;28;20034;-72
2022/03/27 03:14:48;;;;;;;14.55;7.43;;;31.10;96.20;;;;;;4161081;28;20737;-72
2022/03/27 03:17:04;;;;;;;9.35;7.03;;;31.20;96.20;;;;;;4163254;28;20033;-73
2022/03/27 03:19:17;;;;;;;8.93;6.88;;;31.20;96.30;;;;;;4160654;28;20076;-72
2022/03/27 03:21:25;;;;;;;10.05;6.78;;;31.30;96.00;;;;;;4124014;28;20142;-71
2022/03/27 03:23:43;;;;;;;8.70;7.15;;;31.30;95.90;;;;;;4162820;28;20472;-71
2022/03/27 03:25:52;;;;;;;9.95;7.57;;;31.40;96.10;;;;;;4160423;28;20045;-72
2022/03/27 03:28:30;;;;;;;9.50;7.30;;;31.50;95.50;;;;;;4148365;28;20045;-72
2022/03/27 03:30:36;;;;;;;10.57;7.63;;;31.60;95.20;;;;;;4184550;28;20086;-72
2022/03/27 03:32:51;;;;;;;10.32;7.85;;;31.60;95.00;;;;;;4159569;28;20519;-72
2022/03/27 03:34:59;;;;;;;10.98;7.60;;;31.70;95.70;;;;;;4161234;28;20072;-72
2022/03/27 03:37:05;;;;;;;9.73;7.75;;;31.70;94.90;;;;;;4162922;28;20733;-73
2022/03/27 03:39:10;;;;;;;8.95;7.60;;;31.70;94.90;;;;;;4162701;28;20041;-72
2022/03/27 03:41:18;;;;;;;9.32;7.30;;;31.70;94.70;;;;;;4160824;28;20104;-72
2022/03/27 03:43:55;;;;;;;9.32;8.30;;;31.80;94.50;;;;;;4161742;28;20687;-71
2022/03/27 03:46:05;;;;;;;11.80;7.93;;;31.90;93.90;;;;;;4159265;28;20120;-71
2022/03/27 03:48:16;;;;;;;11.18;7.78;;;31.90;94.10;;;;;;4158756;28;20053;-71
2022/03/27 03:50:40;;;;;;;9.85;7.32;;;32.00;94.30;;;;;;4161197;28;20405;-71
2022/03/27 03:52:50;;;;;;;10.13;7.68;;;32.10;94.30;;;;;;4161512;28;20120;-70
2022/03/27 03:55:00;;;;;;;10.07;7.30;;;32.20;94.20;;;;;;4160056;28;20045;-70
2022/03/27 03:57:26;;;;;;;12.68;7.22;;;32.30;94.40;;;;;;4151884;28;20053;-71
2022/03/27 03:59:36;;;;;;;8.77;6.75;;;32.30;94.00;;;;;;4161142;28;20050;-71
2022/03/27 04:01:44;;;;;;;9.30;7.10;;;32.30;93.60;;;;;;4161866;28;20687;-71
2022/03/27 04:04:01;;;;;;;10.48;7.70;;;32.40;93.50;;;;;;4137476;28;20116;-71
2022/03/27 04:06:09;;;;;;;9.35;6.65;;;32.50;94.30;;;;;;4159419;28;20237;-71
2022/03/27 04:08:20;;;;;;;13.50;7.22;;;32.50;94.20;;;;;;4159604;28;20104;-70
2022/03/27 04:10:36;;;;;;;11.38;7.47;;;32.50;94.30;;;;;;4160315;28;20047;-71
2022/03/27 04:12:42;;;;;;;9.77;7.57;;;32.60;95.00;;;;;;4160237;28;20044;-71
2022/03/27 04:14:54;;;;;;;9.07;7.30;;;32.70;94.60;;;;;;4145841;28;20096;-71
2022/03/27 04:17:21;;;;;;;10.52;7.28;;;32.60;93.00;;;;;;4161091;28;20060;-72
2022/03/27 04:19:28;;;;;;;9.00;6.65;;;32.60;93.20;;;;;;4161392;28;20056;-71
2022/03/27 04:21:36;;;;;;;9.43;7.15;;;32.80;92.90;;;;;;4159433;28;20037;-70
2022/03/27 04:23:54;;;;;;;11.07;7.25;;;32.90;92.90;;;;;;4159593;28;20520;-70
2022/03/27 04:26:10;;;;;;;9.90;6.63;;;32.90;92.30;;;;;;4161444;28;20123;-70
2022/03/27 04:28:17;;;;;;;9.88;6.85;;;32.90;92.50;;;;;;4160115;28;20599;-70
2022/03/27 04:30:26;;;;;;;13.63;7.90;;;33.00;92.80;;;;;;4143987;28;20045;-69
2022/03/27 04:32:42;;;;;;;8.27;7.22;;;33.00;92.80;;;;;;4160936;28;20501;-70
2022/03/27 04:34:53;;;;;;;9.80;6.93;;;33.20;90.60;;;;;;4130035;28;20092;-69
2022/03/27 04:37:05;;;;;;;9.65;7.50;;;33.10;91.40;;;;;;4160365;28;20420;-70
2022/03/27 04:39:14;;;;;;;9.75;7.10;;;33.10;91.40;;;;;;4128134;28;20053;-70
2022/03/27 04:41:24;;;;;;;9.25;7.32;;;33.10;90.80;;;;;;4161434;28;20046;-70
2022/03/27 04:43:34;;;;;;;10.20;7.53;;;33.20;91.60;;;;;;4158619;28;20068;-70
2022/03/27 04:45:44;;;;;;;11.57;7.60;;;33.20;91.00;;;;;;4182498;28;20048;-70
2022/03/27 04:47:56;;;;;;;8.63;7.30;;;33.30;92.00;;;;;;4161811;28;20037;-71
2022/03/27 04:50:08;;;;;;;10.07;7.72;;;33.40;91.80;;;;;;4160538;28;20053;-70
2022/03/27 04:52:27;;;;;;;9.75;7.63;;;33.50;91.30;;;;;;4159665;28;20041;-74
2022/03/27 04:54:38;;;;;;;9.75;7.47;;;33.50;91.60;;;;;;4162080;28;20144;-73
2022/03/27 04:56:45;;;;;;;10.15;7.70;;;33.60;91.30;;;;;;4155150;28;20111;-73
2022/03/27 04:58:53;;;;;;;10.40;7.18;;;33.60;90.60;;;;;;4163449;28;20072;-75
2022/03/27 05:01:00;;;;;;;10.52;7.22;;;33.60;91.30;;;;;;4163379;28;20037;-73
2022/03/27 05:03:11;;;;;;;8.63;7.70;;;33.70;90.60;;;;;;4164648;28;20053;-75
2022/03/27 05:05:20;;;;;;;12.32;8.05;;;33.50;90.60;;;;;;4162707;28;20061;-74
2022/03/27 05:07:39;;;;;;;10.25;7.43;;;33.50;91.10;;;;;;4163264;28;20457;-72
2022/03/27 05:09:47;;;;;;;8.82;7.22;;;33.60;90.60;;;;;;4143490;28;20150;-79
2022/03/27 05:11:55;;;;;;;11.10;7.10;;;33.70;91.30;;;;;;4163552;28;20467;-77
2022/03/27 05:14:13;;;;;;;10.25;7.95;;;33.90;91.50;;;;;;4164082;28;20056;-77
2022/03/27 05:16:28;;;;;;;10.55;7.35;;;34.00;91.10;;;;;;4149240;28;20104;-75
2022/03/27 05:18:41;;;;;;;11.25;7.88;;;34.10;91.10;;;;;;4162966;28;20030;-76
2022/03/27 05:20:50;;;;;;;11.05;7.63;;;34.20;91.10;;;;;;4163445;28;20060;-76
2022/03/27 05:23:01;;;;;;;11.32;7.47;;;34.30;91.30;;;;;;4165274;28;20133;-76
2022/03/27 05:25:12;;;;;;;9.40;7.85;;;34.30;90.90;;;;;;4172187;28;20080;-77
2022/03/27 05:27:24;;;;;;;7.88;7.05;;;34.40;90.20;;;;;;4166099;28;20045;-78
2022/03/27 05:29:36;;;;;;;10.82;7.68;;;34.40;90.00;;;;;;4165749;28;20095;-77
2022/03/27 05:31:45;;;;;;;9.95;7.65;;;34.50;90.10;;;;;;4149871;28;20468;-76
2022/03/27 05:34:10;;;;;;;9.30;7.38;;;34.50;90.20;;;;;;4166290;28;20046;-79
2022/03/27 05:36:26;;;;;;;8.00;7.15;;;34.60;89.90;;;;;;4166806;28;20061;-77
2022/03/27 05:38:38;;;;;;;15.85;7.35;;;34.50;88.90;;;;;;4165711;28;20124;-77
2022/03/27 05:40:57;;;;;;;10.38;6.80;;;34.40;88.60;;;;;;4165749;28;20076;-76
2022/03/27 05:43:10;;;;;;;8.82;6.97;;;34.20;90.00;;;;;;4131108;28;20746;-77
2022/03/27 05:45:19;;;;;;;9.13;7.72;;;34.10;90.40;;;;;;4164682;28;20136;-76
2022/03/27 05:47:33;;;;;;;8.95;7.57;;;34.10;90.80;;;;;;4149741;28;20046;-77
2022/03/27 05:49:49;;;;;;;9.80;7.43;;;34.20;90.70;;;;;;4165897;28;20121;-76
2022/03/27 05:52:05;;;;;;;8.95;7.38;;;34.40;90.50;;;;;;4165584;28;20128;-77
2022/03/27 05:54:28;;;;;;;9.27;6.43;;;34.50;90.30;;;;;;4163995;28;20761;-76
2022/03/27 05:56:39;;;;;;;12.45;7.20;;;34.60;90.10;;;;;;4147995;28;20672;-77
2022/03/27 05:58:51;;;;;;;9.02;6.55;;;34.90;89.60;;;;;;4165389;28;20042;-78
2022/03/27 06:01:00;;;;;;;8.55;6.57;;;34.90;89.00;;;;;;4167236;28;20045;-78
2022/03/27 06:03:11;;;;;;;8.38;6.25;;;35.00;88.70;;;;;;4120588;28;20070;-78
2022/03/27 06:05:22;;;;;;;11.07;6.13;;;35.00;88.90;;;;;;4164636;28;20505;-78
2022/03/27 06:07:30;;;;;;;9.02;5.97;;;35.00;89.40;;;;;;4162640;28;20076;-76
2022/03/27 06:09:37;;;;;;;14.63;6.20;;;35.00;89.20;;;;;;4164011;28;20041;-76
2022/03/27 06:11:43;;;;;;;9.55;6.40;;;34.90;87.90;;;;;;4165031;28;20075;-77
2022/03/27 06:13:51;;;;;;;6.97;6.07;;;34.80;88.70;;;;;;4164077;28;20115;-76
2022/03/27 06:16:09;;;;;;;8.10;6.10;;;34.90;88.50;;;;;;4117812;28;20039;-76
2022/03/27 06:18:16;;;;;;;7.13;6.35;;;35.00;88.70;;;;;;4133608;28;20050;-77
2022/03/27 06:20:31;;;;;;;7.55;5.90;;;34.90;88.50;;;;;;4165424;28;20056;-77
2022/03/27 06:22:43;;;;;;;8.00;6.18;;;34.80;88.50;;;;;;4166429;28;20048;-77
2022/03/27 06:24:55;;;;;;;8.82;6.05;;;34.70;89.10;;;;;;4162966;28;20052;-77
2022/03/27 06:27:04;;;;;;;7.43;6.15;;;34.80;89.00;;;;;;4165105;28;20037;-78
2022/03/27 06:29:14;;;;;;;6.60;6.00;;;35.00;88.70;;;;;;4148566;28;20068;-77
2022/03/27 06:31:22;;;;;;;7.20;5.72;;;35.00;88.20;;;;;;4166329;28;20048;-77
2022/03/27 06:33:32;;;;;;;7.50;5.90;;;35.10;87.80;;;;;;4170890;28;20045;-77
2022/03/27 06:35:45;;;;;;;8.20;6.30;;;35.20;87.70;;;;;;4115864;28;20649;-79
2022/03/27 06:37:52;;;;;;;9.10;5.82;;;35.30;88.00;;;;;;4166384;28;20045;-78
2022/03/27 06:40:04;;;;;;;6.68;5.95;;;35.40;88.60;;;;;;4150140;28;20417;-78
2022/03/27 06:42:14;;;;;;;9.10;5.75;;;35.30;86.20;;;;;;4186333;28;20651;-77
2022/03/27 06:44:20;;;;;;;8.27;5.53;;;35.30;85.60;;;;;;4165391;28;20037;-77
2022/03/27 06:46:28;;;;;;;7.53;5.47;;;35.40;85.50;;;;;;4161936;28;20042;-78
2022/03/27 06:48:35;;;;;;;6.20;5.45;;;35.40;83.60;;;;;;4164668;28;20037;-78
2022/03/27 06:50:41;;;;;;;8.90;5.55;;;35.50;84.90;;;;;;4148437;28;20060;-79
2022/03/27 06:52:48;;;;;;;6.22;5.63;;;35.50;84.80;;;;;;4164737;28;20523;-78
2022/03/27 06:54:58;;;;;;;7.15;5.85;;;35.60;84.80;;;;;;4101403;28;20477;-77
2022/03/27 06:57:05;;;;;;;6.20;5.57;;;35.60;82.60;;;;;;4161093;28;20084;-78
2022/03/27 06:59:15;;;;;;;6.90;5.28;;;35.60;82.60;;;;;;4164908;28;20041;-77
2022/03/27 07:03:53;;;;;;;8.20;6.75;;;35.50;83.00;;;;;;4162599;28;20049;-70
2022/03/27 07:06:02;;;;;;;12.57;7.25;;;35.50;85.00;;;;;;4164887;28;20049;-78
2022/03/27 07:08:10;;;;;;;8.43;7.40;;;35.40;88.10;;;;;;4187122;28;20166;-76
2022/03/27 07:10:16;;;;;;;9.93;7.50;;;35.30;88.30;;;;;;4162244;28;20045;-73
2022/03/27 07:12:24;;;;;;;10.00;6.80;;;35.10;88.10;;;;;;4161474;28;20460;-75
2022/03/27 07:14:36;;;;;;;13.43;10.35;;;35.10;88.70;;;;;;4161202;28;20053;-77
2022/03/27 07:16:41;;;;;;;11.68;8.18;;;35.20;88.90;;;;;;4163312;28;20040;-75
2022/03/27 07:18:49;;;;;;;10.43;7.93;;;35.00;89.80;;;;;;4163256;28;20044;-76
2022/03/27 07:20:59;;;;;;;10.30;7.00;;;34.90;89.70;;;;;;4163063;28;20091;-75
2022/03/27 07:23:06;;;;;;;9.13;6.93;;;34.80;89.90;;;;;;4131944;28;20042;-76
2022/03/27 07:25:13;;;;;;;8.90;6.97;;;34.70;89.60;;;;;;4185634;28;20667;-76
2022/03/27 07:27:31;;;;;;;8.75;7.15;;;34.90;90.00;;;;;;4160457;28;20496;-76
2022/03/27 07:29:37;;;;;;;8.50;7.05;;;35.00;89.60;;;;;;4169691;28;20049;-77
2022/03/27 07:31:44;;;;;;;8.75;7.85;;;35.20;88.90;;;;;;4161153;28;20053;-75
2022/03/27 07:33:56;;;;;;;9.20;7.20;;;35.20;89.30;;;;;;4162745;28;20136;-76
2022/03/27 07:36:01;;;;;;;14.25;6.85;;;35.20;89.00;;;;;;4163759;28;20120;-77
2022/03/27 07:38:08;;;;;;;9.65;6.90;;;35.20;89.20;;;;;;4162841;28;20037;-76
2022/03/27 07:40:20;;;;;;;;;;;35.30;88.10;;;;;;4161753;28;20052;-76
2022/03/27 07:42:25;;;;;;;8.02;6.10;;;35.30;88.20;;;;;;4163739;28;20013;-76
2022/03/27 07:44:34;;;;;;;8.70;6.75;;;35.30;88.50;;;;;;4163582;28;20084;-76
2022/03/27 07:46:42;;;;;;;7.57;6.85;;;35.40;88.80;;;;;;4162076;28;20072;-76
2022/03/27 07:48:47;;;;;;;10.45;7.10;;;35.40;87.90;;;;;;4162825;28;20156;-76
2022/03/27 07:50:58;;;;;;;7.75;6.82;;;35.40;87.50;;;;;;4163647;28;20026;-76
2022/03/27 07:53:06;;;;;;;10.02;7.13;;;35.40;88.00;;;;;;4162301;28;20038;-75
2022/03/27 07:55:15;;;;;;;8.68;6.32;;;35.40;87.80;;;;;;4161850;28;20051;-75
2022/03/27 07:57:22;;;;;;;8.13;6.45;;;35.30;86.70;;;;;;4163068;28;20054;-75
2022/03/27 07:59:29;;;;;;;8.15;6.65;;;35.30;87.30;;;;;;4150533;28;20045;-74
2022/03/27 08:01:34;;;;;;;8.30;7.13;;;35.20;87.30;;;;;;4162103;28;20488;-75
2022/03/27 08:03:41;;;;;;;11.50;7.30;;;35.20;87.80;;;;;;4163784;28;20136;-75
2022/03/27 08:05:49;;;;;;;9.50;7.43;;;35.00;88.60;;;;;;4143925;28;20057;-74
2022/03/27 08:07:55;;;;;;;11.10;7.60;;;35.00;88.40;;;;;;4162779;28;20046;-75
2022/03/27 08:10:02;;;;;;;10.98;7.55;;;35.10;88.70;;;;;;4163090;28;20049;-75
2022/03/27 08:12:12;;;;;;;8.18;7.18;;;35.10;88.70;;;;;;4127986;28;20042;-74
2022/03/27 08:14:17;;;;;;;9.63;6.88;;;35.00;88.80;;;;;;4161550;28;20500;-74
2022/03/27 08:16:27;;;;;;;9.50;6.95;;;35.10;88.40;;;;;;4162651;28;20687;-75
2022/03/27 08:18:36;;;;;;;9.55;6.85;;;35.00;88.80;;;;;;4161986;28;20038;-74
2022/03/27 08:20:41;;;;;;;10.63;6.97;;;35.00;88.10;;;;;;4163318;28;20077;-74
2022/03/27 08:22:54;;;;;;;7.70;6.45;;;35.00;88.20;;;;;;4162778;28;20056;-75
2022/03/27 08:25:01;;;;;;;7.88;7.07;;;35.10;88.00;;;;;;4162648;28;20120;-75
2022/03/27 08:27:08;;;;;;;8.25;6.65;;;35.10;87.60;;;;;;4162910;28;20056;-75
2022/03/27 08:29:15;;;;;;;8.57;7.30;;;35.10;87.80;;;;;;4162940;28;20046;-75
2022/03/27 08:31:21;;;;;;;9.98;6.75;;;35.00;88.10;;;;;;4142497;28;20075;-75
2022/03/27 08:33:30;;;;;;;9.20;7.05;;;34.90;88.00;;;;;;4161662;28;20132;-75
2022/03/27 08:35:41;;;;;;;9.50;6.85;;;34.70;87.80;;;;;;4162572;28;20077;-75
2022/03/27 08:37:48;;;;;;;15.43;12.00;;;34.60;88.00;;;;;;4160278;28;20681;-75
2022/03/27 08:39:53;;;;;;;10.88;8.82;;;34.60;88.40;;;;;;4162646;28;20046;-75
2022/03/27 08:42:00;;;;;;;11.30;7.88;;;34.60;88.60;;;;;;4162816;28;20049;-75
2022/03/27 08:44:13;;;;;;;10.38;7.30;;;34.80;88.80;;;;;;4162631;28;20413;-75
2022/03/27 08:46:18;;;;;;;7.45;6.68;;;34.70;87.90;;;;;;4162930;28;20085;-75
2022/03/27 08:48:26;;;;;;;8.50;6.93;;;34.70;88.20;;;;;;4143421;28;20049;-74
2022/03/27 08:50:43;;;;;;;7.90;6.40;;;34.80;88.70;;;;;;4161837;28;20107;-75
2022/03/27 08:52:57;;;;;;;7.65;6.50;;;34.80;86.60;;;;;;4162924;28;20053;-75
2022/03/27 08:55:22;;;;;;;12.35;6.82;;;34.70;87.60;;;;;;4163260;28;20042;-75
2022/03/27 08:57:44;;;;;;;8.48;7.05;;;34.70;89.60;;;;;;4163244;28;20058;-75
2022/03/27 08:59:53;;;;;;;8.93;7.40;;;34.60;90.20;;;;;;4157114;28;20050;-75
2022/03/27 09:02:01;;;;;;;10.70;7.53;;;34.60;90.40;;;;;;4157429;28;20051;-76
2022/03/27 09:04:08;;;;;;;11.60;8.35;;;34.60;90.50;;;;;;4119082;28;20065;-78
2022/03/27 09:06:14;;;;;;;9.50;7.60;;;34.50;90.30;;;;;;4167532;28;20810;-73
2022/03/27 09:08:21;;;;;;;13.00;7.30;;;34.50;90.40;;;;;;4156748;28;20908;-74
2022/03/27 09:10:32;;;;;;;;;;;34.50;90.40;;;;;;4140075;28;20180;-76
2022/03/27 09:12:39;;;;;;;12.35;7.90;;;34.50;90.50;;;;;;4126048;28;19929;-77
2022/03/27 09:14:45;;;;;;;9.40;7.22;;;34.50;90.70;;;;;;4139804;28;20053;-74
2022/03/27 09:17:03;;;;;;;9.05;7.03;;;34.40;90.80;;;;;;4094328;29;20051;-71
2022/03/27 09:19:10;;;;;;;11.70;7.80;;;34.40;90.90;;;;;;4136379;28;20137;-75
2022/03/27 09:21:16;;;;;;;9.75;7.60;;;34.40;90.90;;;;;;4126590;28;20074;-75
2022/03/27 09:23:35;;;;;;;7.95;6.70;;;34.40;90.80;;;;;;4140189;28;20060;-76
2022/03/27 09:25:58;;;;;;;11.70;7.43;;;34.30;90.00;;;;;;4126376;28;20084;-76
2022/03/27 09:28:10;;;;;;;9.30;7.00;;;34.30;90.30;;;;;;4134209;28;20165;-73
2022/03/27 09:30:17;;;;;;;15.13;7.32;;;34.30;90.40;;;;;;4136078;28;20046;-74
2022/03/27 09:32:30;;;;;;;8.15;6.72;;;34.40;90.40;;;;;;4131572;28;20061;-75
2022/03/27 09:34:59;;;;;;;10.15;7.03;;;34.30;90.40;;;;;;4100540;28;20094;-74
2022/03/27 09:37:33;;;;;;;8.60;6.95;;;34.30;90.60;;;;;;4106461;28;20098;-78
2022/03/27 09:39:39;;;;;;;8.63;7.28;;;34.40;90.60;;;;;;4130533;28;20170;-77
2022/03/27 09:41:47;;;;;;;9.25;7.00;;;34.40;90.60;;;;;;4160664;28;20581;-76
2022/03/27 09:44:02;;;;;;;11.77;7.18;;;34.40;90.90;;;;;;4170320;28;20056;-75
2022/03/27 09:46:10;;;;;;;7.63;6.82;;;34.30;90.80;;;;;;4174780;28;20143;-75
2022/03/27 09:48:15;;;;;;;8.25;6.85;;;34.20;90.70;;;;;;4168791;28;20547;-75
2022/03/27 09:50:34;;;;;;;14.23;7.25;;;34.20;90.80;;;;;;4177531;28;20072;-73
2022/03/27 09:52:42;;;;;;;11.18;7.93;;;34.20;90.50;;;;;;4156733;28;20057;-77
2022/03/27 09:55:05;;;;;;;12.05;7.88;;;34.10;90.40;;;;;;4164228;28;20434;-72
2022/03/27 09:57:23;;;;;;;8.73;7.28;;;34.10;90.70;;;;;;4138706;28;20120;-76
2022/03/27 09:59:32;;;;;;;11.68;8.13;;;34.10;91.30;;;;;;4161252;28;20144;-75
2022/03/27 10:01:41;;;;;;;12.50;8.93;;;34.00;91.00;;;;;;4162522;28;20045;-76
2022/03/27 10:04:07;;;;;;;12.65;9.68;;;33.90;91.10;;;;;;4145011;28;20050;-75
2022/03/27 10:06:28;;;;;;;12.63;8.85;;;33.80;91.10;;;;;;4162165;28;20424;-76
2022/03/27 10:08:37;;;;;;;14.52;8.73;;;33.80;91.30;;;;;;4161134;28;20519;-74
2022/03/27 10:10:45;;;;;;;17.98;9.35;;;33.80;91.30;;;;;;4124201;28;20073;-76
2022/03/27 10:12:52;;;;;;;13.10;9.82;;;33.70;91.40;;;;;;4162809;28;20116;-76
2022/03/27 10:15:09;;;;;;;15.07;9.52;;;33.70;91.60;;;;;;4163972;28;20038;-77
2022/03/27 10:17:22;;;;;;;11.60;8.98;;;33.60;91.60;;;;;;4160256;28;20073;-77
2022/03/27 10:19:32;;;;;;;13.43;9.25;;;33.60;91.70;;;;;;4161598;28;20139;-77
2022/03/27 10:21:38;;;;;;;13.95;9.30;;;33.50;91.70;;;;;;4194143;28;20044;-74
2022/03/27 10:23:47;;;;;;;9.60;8.10;;;33.50;91.70;;;;;;4162846;28;20125;-74
2022/03/27 10:25:59;;;;;;;12.57;9.48;;;33.50;91.70;;;;;;4159489;28;20045;-75
2022/03/27 10:28:04;;;;;;;10.82;8.40;;;33.50;91.60;;;;;;4163283;28;20068;-75
2022/03/27 10:30:14;;;;;;;11.43;8.40;;;33.50;91.80;;;;;;4127883;28;20054;-75
2022/03/27 10:32:21;;;;;;;11.52;9.00;;;33.50;91.80;;;;;;4127677;28;20065;-75
2022/03/27 10:34:27;;;;;;;16.92;8.77;;;33.50;91.90;;;;;;4128198;28;20444;-73
2022/03/27 10:36:37;;;;;;;34.20;12.02;;;33.50;93.20;;;;;;4096453;28;20051;-73
2022/03/27 10:38:54;;;;;;;35.50;11.57;;;33.40;96.00;;;;;;4111551;28;20066;-69
2022/03/27 10:41:00;;;;;;;29.75;13.30;;;33.30;96.60;;;;;;4113023;28;20047;-71
2022/03/27 10:43:15;;;;;;;29.17;15.23;;;33.10;98.80;;;;;;4111626;28;20050;-73
2022/03/27 10:45:23;;;;;;;21.10;13.93;;;32.90;98.90;;;;;;4110904;28;20066;-71
2022/03/27 10:47:35;;;;;;;22.05;13.25;;;32.80;98.90;;;;;;4110644;28;20628;-72
2022/03/27 10:49:40;;;;;;;19.73;12.18;;;32.80;98.30;;;;;;4112072;28;20042;-70
2022/03/27 10:51:49;;;;;;;19.70;12.45;;;32.80;98.10;;;;;;4112212;28;20053;-74
2022/03/27 10:54:20;;;;;;;18.40;11.80;;;32.80;98.60;;;;;;4111295;28;20049;-74
2022/03/27 10:56:39;;;;;;;19.90;13.02;;;32.70;99.00;;;;;;4112258;28;20086;-74
2022/03/27 10:58:46;;;;;;;18.50;12.57;;;32.60;99.00;;;;;;4112358;28;20627;-73
2022/03/27 11:00:50;;;;;;;14.25;11.85;;;32.60;98.60;;;;;;4119095;28;20092;-75
2022/03/27 11:02:59;;;;;;;20.55;12.02;;;32.60;98.90;;;;;;4089043;29;20044;-75
2022/03/27 11:05:15;;;;;;;17.52;11.55;;;32.50;98.90;;;;;;4095791;29;20153;-77
2022/03/27 11:07:23;;;;;;;20.45;11.93;;;32.50;99.00;;;;;;4090580;28;20564;-75
2022/03/27 11:09:34;;;;;;;12.80;11.38;;;32.50;99.20;;;;;;4112560;28;20098;-75
2022/03/27 11:11:43;;;;;;;18.00;12.18;;;32.50;99.10;;;;;;4112246;28;20058;-75
2022/03/27 11:13:48;;;;;;;22.63;11.45;;;32.40;99.20;;;;;;4127857;28;20042;-74
2022/03/27 11:16:05;;;;;;;17.38;11.95;;;32.40;99.70;;;;;;4095348;28;20047;-75
2022/03/27 11:18:13;;;;;;;14.95;12.75;;;32.30;99.80;;;;;;4094288;29;20270;-74
2022/03/27 11:20:23;;;;;;;22.25;13.82;;;32.30;99.90;;;;;;4094992;28;20067;-73
2022/03/27 11:22:52;;;;;;;22.85;16.15;;;32.00;99.90;;;;;;4093433;29;20058;-72